• Join FlightAware (Why Join?)
  • Login
  • US Flag 
01:56AM EDT


 

Airport Tracker/Info


-or-


 

Live Flight TrackerFlight Track Log ✈ DAL872 ✈ 20-Mar-2012 ✈ KMSN - KDTW

Flight Track Log - Related Links

Times and Time Zones

All times are in EDT time to prevent confusion due to time zone crossing. See the DAL872 flight status page for this flight to view local times or setup timezone preferences in your user account.

Time Position Orientation Groundspeed Altitude Reporting Facility
EDT Latitude Longitude Course Direction KTS MPH feet Rate Location/Type
07:36AM 43.1694 -89.2047 93° East 229 264 4,500  Level Chicago Center
07:37AM 43.1650 -89.0994 96° East 265 305 8,100 2,940 Climbing Chicago Center
07:38AM 43.1564 -88.9883 94° East 285 328 10,400 1,800 Climbing Chicago Center
07:39AM 43.1497 -88.8547 95° East 321 369 11,800 2,040 Climbing Chicago Center
07:40AM 43.1406 -88.7039 95° East 368 423 14,500 2,640 Climbing Chicago Center
07:41AM 43.1314 -88.5561 94° East 388 447 17,100 2,400 Climbing Chicago Center
07:42AM 43.1239 -88.4056 92° East 393 452 19,300 1,920 Climbing Chicago Center
07:43AM 43.1203 -88.2436 80° East 407 468 21,000 1,620 Climbing Chicago Center
07:44AM 43.1417 -88.0808 79° East 425 489 22,600 1,680 Climbing Chicago Center
07:45AM 43.1647 -87.9097 81° East 440 506 24,400 1,620 Climbing Chicago Center
07:46AM 43.1833 -87.7411 80° East 450 518 25,900 1,620 Climbing Chicago Center
07:47AM 43.2058 -87.5697 81° East 450 518 27,700 1,500 Climbing Chicago Center
07:48AM 43.2258 -87.3983 79° East 450 518 29,000 600 Climbing Chicago Center
07:49AM 43.2464 -87.2494 81° East 445 512 29,000  Level Chicago Center
07:50AM 43.2661 -87.0806 81° East 445 512 29,000  Level Chicago Center
07:51AM 43.2856 -86.9086 81° East 450 518 29,000  Level Chicago Center
07:52AM 43.3044 -86.7339 81° East 455 524 29,000  Level Chicago Center
07:53AM 43.3250 -86.5444 80° East 455 524 29,000  Level Chicago Center
07:54AM 43.3458 -86.3753 82° East 450 518 29,000 -300 Level Chicago Center
07:55AM 43.3642 -86.2031 81° East 450 518 28,500 -780 Descending Chicago Center
07:56AM 43.3825 -86.0392 94° East 445 512 27,500 -900 Descending Chicago Center
07:57AM 43.3742 -85.8939 105° East 438 504 26,700 -900 Descending Chicago Center
07:58AM 43.3444 -85.7414 104° East 418 481 25,700 -1,020 Descending Chicago Center
07:59AM 43.3167 -85.5889 104° East 418 481 24,700 -1,020 Descending Chicago Center
08:00AM 43.2886 -85.4364 105° East 412 474 23,700 -720 Descending Chicago Center
08:01AM 43.2486 -85.2269 104° East 415 478 23,000 -300 Descending Cleveland Center
08:02AM 43.2208 -85.0794 104° East 405 466 23,000  Level Cleveland Center
08:03AM 43.1881 -84.9033 105° East 405 466 23,000 -120 Level Cleveland Center
08:04AM 43.1583 -84.7475 105° East 417 480 22,800 -600 Descending Cleveland Center
08:05AM 43.1283 -84.5917 105° East 422 486 21,800 -1,020 Descending Cleveland Center
08:06AM 43.0981 -84.4389 104° East 422 486 20,800 -1,020 Descending Cleveland Center
08:07AM 43.0700 -84.2836 105° East 422 486 19,800 -1,020 Descending Cleveland Center
08:08AM 43.0411 -84.1400 104° East 409 471 18,800 -1,560 Descending Cleveland Center
08:09AM 43.0142 -83.9964 105° East 394 453 16,700 -2,220 Descending Cleveland Center
08:10AM 42.9850 -83.8528 143° Southeast 388 447 14,400 -2,100 Descending Cleveland Center
08:11AM 42.9200 -83.7869 157° South 352 405 12,800 -1,260 Descending Cleveland Center
08:12AM 42.8297 -83.7342 154° Southeast 311 358 12,000 -840 Descending Cleveland Center
08:13AM 42.7603 -83.6883 158° South 304 350 11,100 -1,320 Descending Cleveland Center
08:14AM 42.6861 -83.6481 146° Southeast 298 343 9,400 -1,380 Descending Cleveland Center
08:15AM 42.6211 -83.5883 131° Southeast 280 322 8,400 -1,380 Descending Cleveland Center
08:16AM 42.5689 -83.5069 130° Southeast 280 322 6,700 -1,260 Descending Cleveland Center
08:17AM 42.5147 -83.4197 133° Southeast 280 322 5,900 -960 Descending Cleveland Center
08:18AM 42.4625 -83.3444 149° Southeast 275 316 4,800 -900 Descending Cleveland Center
08:20AM 42.3908 -83.2850 181° South 230 265 3,900 -840 Descending Cleveland Center
08:20AM 42.3450 -83.2858 205° Southwest 222 255 3,200 -900 Descending Cleveland Center
08:22AM 42.2858 -83.3225 209° Southwest 141 162 2,000 -840 Descending Cleveland Center
08:23AM 42.2539 -83.3464 209° Southwest 129 148 1,300 -720 Descending Cleveland Center